West Lake Hills, Texas
Current Conditions -  °F | °C
As of 8:51 AM on Monday 22 Dec 2014 (Local Time) from KATT Reporting Station
Few Clouds Few Clouds  
Wind Chill: 60°   Ceiling: Unl
Heat Index: 60°   Visibility: 10mi
Dew Point: 53°   Wind: 6mph
Humidity: 78%   Direction: NA
Pressure: 29.74"   Gusts: NA
Location:  30.2958°N, 97.8101°W
Report Text: KATT 221451Z AUTO VRB05KT 10SM FEW014 16/12 A2974 RMK AO2 SLP067 T01560117 53004
Loading
Personal Weather Stations






























Interactive Weather Map New forecast layout! Learn more

10-Day Weather Forecast

Advertisements
Track Severe Weather on mobile